sensor_id;sensor_type;location;lat;lon;timestamp;temperature;humidity
40816;DHT22;26535;48.788;9.214;2023-09-19T00:05:33;18.40;98.10
40816;DHT22;26535;48.788;9.214;2023-09-19T00:11:49;18.30;98.20
40816;DHT22;26535;48.788;9.214;2023-09-19T00:14:24;18.30;98.30
40816;DHT22;26535;48.788;9.214;2023-09-19T00:17:11;18.30;98.40
40816;DHT22;26535;48.788;9.214;2023-09-19T00:19:45;18.30;98.40
40816;DHT22;26535;48.788;9.214;2023-09-19T00:22:33;18.30;98.60
40816;DHT22;26535;48.788;9.214;2023-09-19T00:25:05;18.20;98.90
40816;DHT22;26535;48.788;9.214;2023-09-19T00:28:06;18.20;98.90
40816;DHT22;26535;48.788;9.214;2023-09-19T00:30:37;18.10;99.30
40816;DHT22;26535;48.788;9.214;2023-09-19T05:59:37;16.00;99.90
40816;DHT22;26535;48.788;9.214;2023-09-19T06:02:05;15.90;99.90
40816;DHT22;26535;48.788;9.214;2023-09-19T06:04:31;15.80;99.90
40816;DHT22;26535;48.788;9.214;2023-09-19T06:07:09;15.80;99.90
40816;DHT22;26535;48.788;9.214;2023-09-19T06:09:42;15.80;99.90
40816;DHT22;26535;48.788;9.214;2023-09-19T06:12:11;15.90;99.90
40816;DHT22;26535;48.788;9.214;2023-09-19T06:14:39;15.90;99.90
40816;DHT22;26535;48.788;9.214;2023-09-19T06:17:12;15.80;99.90
40816;DHT22;26535;48.788;9.214;2023-09-19T06:19:37;15.80;99.90
40816;DHT22;26535;48.788;9.214;2023-09-19T06:22:03;15.80;99.90
40816;DHT22;26535;48.788;9.214;2023-09-19T06:24:29;15.70;99.90
40816;DHT22;26535;48.788;9.214;2023-09-19T06:26:55;15.70;99.90
40816;DHT22;26535;48.788;9.214;2023-09-19T06:29:20;15.80;99.90
40816;DHT22;26535;48.788;9.214;2023-09-19T06:31:48;15.80;99.90
40816;DHT22;26535;48.788;9.214;2023-09-19T06:34:14;15.90;99.90
40816;DHT22;26535;48.788;9.214;2023-09-19T06:36:41;16.00;99.90
40816;DHT22;26535;48.788;9.214;2023-09-19T06:39:07;16.00;99.90
40816;DHT22;26535;48.788;9.214;2023-09-19T06:41:37;16.10;99.90
40816;DHT22;26535;48.788;9.214;2023-09-19T06:44:10;16.20;99.90
40816;DHT22;26535;48.788;9.214;2023-09-19T06:46:35;16.20;99.90
40816;DHT22;26535;48.788;9.214;2023-09-19T06:49:05;16.40;99.90
40816;DHT22;26535;48.788;9.214;2023-09-19T06:51:32;16.50;99.90
40816;DHT22;26535;48.788;9.214;2023-09-19T06:54:01;16.70;99.90
40816;DHT22;26535;48.788;9.214;2023-09-19T06:56:27;16.70;99.90
40816;DHT22;26535;48.788;9.214;2023-09-19T06:58:52;16.80;99.90
40816;DHT22;26535;48.788;9.214;2023-09-19T07:01:18;16.80;99.90
40816;DHT22;26535;48.788;9.214;2023-09-19T07:03:44;17.00;99.90
40816;DHT22;26535;48.788;9.214;2023-09-19T07:06:11;17.10;99.90
40816;DHT22;26535;48.788;9.214;2023-09-19T07:08:36;17.20;99.90
40816;DHT22;26535;48.788;9.214;2023-09-19T07:11:03;17.30;99.90
40816;DHT22;26535;48.788;9.214;2023-09-19T07:13:34;17.50;99.90
40816;DHT22;26535;48.788;9.214;2023-09-19T07:16:00;17.60;99.90
40816;DHT22;26535;48.788;9.214;2023-09-19T07:18:26;17.70;99.90
40816;DHT22;26535;48.788;9.214;2023-09-19T07:20:57;17.80;99.90
40816;DHT22;26535;48.788;9.214;2023-09-19T07:23:27;17.80;99.90
40816;DHT22;26535;48.788;9.214;2023-09-19T07:25:56;17.80;99.90
40816;DHT22;26535;48.788;9.214;2023-09-19T07:28:22;17.80;99.90
40816;DHT22;26535;48.788;9.214;2023-09-19T07:30:48;17.80;99.90
40816;DHT22;26535;48.788;9.214;2023-09-19T07:33:13;18.00;99.90
40816;DHT22;26535;48.788;9.214;2023-09-19T07:35:40;18.10;99.90
40816;DHT22;26535;48.788;9.214;2023-09-19T07:38:06;18.10;99.90
40816;DHT22;26535;48.788;9.214;2023-09-19T07:40:32;18.00;99.90
40816;DHT22;26535;48.788;9.214;2023-09-19T07:42:58;18.00;99.90
40816;DHT22;26535;48.788;9.214;2023-09-19T07:45:28;18.00;99.90
40816;DHT22;26535;48.788;9.214;2023-09-19T07:47:55;18.10;99.90
40816;DHT22;26535;48.788;9.214;2023-09-19T07:50:21;18.10;99.90
40816;DHT22;26535;48.788;9.214;2023-09-19T07:52:48;18.10;99.90
40816;DHT22;26535;48.788;9.214;2023-09-19T07:55:16;18.10;99.90
40816;DHT22;26535;48.788;9.214;2023-09-19T07:57:43;18.30;99.90
40816;DHT22;26535;48.788;9.214;2023-09-19T08:00:13;18.40;99.90
40816;DHT22;26535;48.788;9.214;2023-09-19T08:02:40;18.40;99.90
40816;DHT22;26535;48.788;9.214;2023-09-19T08:05:08;18.50;99.90
40816;DHT22;26535;48.788;9.214;2023-09-19T08:07:38;18.50;99.90
40816;DHT22;26535;48.788;9.214;2023-09-19T08:10:05;18.60;99.90
40816;DHT22;26535;48.788;9.214;2023-09-19T08:12:39;18.70;99.90
40816;DHT22;26535;48.788;9.214;2023-09-19T08:15:21;18.80;99.90
40816;DHT22;26535;48.788;9.214;2023-09-19T08:17:48;18.90;99.90
40816;DHT22;26535;48.788;9.214;2023-09-19T08:20:17;18.90;99.90
40816;DHT22;26535;48.788;9.214;2023-09-19T08:22:58;19.00;99.90
40816;DHT22;26535;48.788;9.214;2023-09-19T08:25:39;19.10;99.70
40816;DHT22;26535;48.788;9.214;2023-09-19T08:29:10;19.10;99.90
40816;DHT22;26535;48.788;9.214;2023-09-19T08:31:32;19.20;98.90
40816;DHT22;26535;48.788;9.214;2023-09-19T08:33:59;19.30;98.40
40816;DHT22;26535;48.788;9.214;2023-09-19T08:36:31;19.50;98.40
40816;DHT22;26535;48.788;9.214;2023-09-19T08:38:57;19.60;97.70
40816;DHT22;26535;48.788;9.214;2023-09-19T08:41:23;19.50;97.40
40816;DHT22;26535;48.788;9.214;2023-09-19T08:43:48;19.40;97.50
40816;DHT22;26535;48.788;9.214;2023-09-19T08:46:18;19.40;97.60
40816;DHT22;26535;48.788;9.214;2023-09-19T08:48:58;19.50;98.40
40816;DHT22;26535;48.788;9.214;2023-09-19T08:51:43;19.70;97.20
40816;DHT22;26535;48.788;9.214;2023-09-19T08:54:41;19.80;96.80
40816;DHT22;26535;48.788;9.214;2023-09-19T08:57:08;19.90;96.30
40816;DHT22;26535;48.788;9.214;2023-09-19T09:03:25;19.90;94.70
40816;DHT22;26535;48.788;9.214;2023-09-19T09:06:01;19.80;94.20
40816;DHT22;26535;48.788;9.214;2023-09-19T09:08:33;20.00;94.70
40816;DHT22;26535;48.788;9.214;2023-09-19T09:10:59;20.10;93.80
40816;DHT22;26535;48.788;9.214;2023-09-19T09:13:25;20.40;94.50
40816;DHT22;26535;48.788;9.214;2023-09-19T09:15:52;20.60;93.00
40816;DHT22;26535;48.788;9.214;2023-09-19T09:18:20;20.60;92.40
40816;DHT22;26535;48.788;9.214;2023-09-19T09:20:55;20.80;92.50
40816;DHT22;26535;48.788;9.214;2023-09-19T09:23:21;20.70;91.80
40816;DHT22;26535;48.788;9.214;2023-09-19T09:25:49;20.90;91.40
40816;DHT22;26535;48.788;9.214;2023-09-19T09:28:24;21.10;90.30
40816;DHT22;26535;48.788;9.214;2023-09-19T09:30:50;21.30;88.50
40816;DHT22;26535;48.788;9.214;2023-09-19T09:33:17;21.40;89.00
40816;DHT22;26535;48.788;9.214;2023-09-19T09:36:00;21.30;87.40
40816;DHT22;26535;48.788;9.214;2023-09-19T09:38:47;21.50;84.70
40816;DHT22;26535;48.788;9.214;2023-09-19T09:41:16;21.60;81.80
40816;DHT22;26535;48.788;9.214;2023-09-19T09:43:53;21.40;82.00
40816;DHT22;26535;48.788;9.214;2023-09-19T09:46:20;21.50;82.30
40816;DHT22;26535;48.788;9.214;2023-09-19T09:51:36;21.40;81.00
40816;DHT22;26535;48.788;9.214;2023-09-19T09:54:14;21.40;81.50
40816;DHT22;26535;48.788;9.214;2023-09-19T09:56:57;21.70;80.20
40816;DHT22;26535;48.788;9.214;2023-09-19T10:02:20;21.40;80.40
40816;DHT22;26535;48.788;9.214;2023-09-19T10:04:51;21.60;79.80
40816;DHT22;26535;48.788;9.214;2023-09-19T10:07:30;21.70;78.90
40816;DHT22;26535;48.788;9.214;2023-09-19T10:10:04;21.80;77.20
40816;DHT22;26535;48.788;9.214;2023-09-19T10:12:45;21.90;78.10
40816;DHT22;26535;48.788;9.214;2023-09-19T10:15:12;22.30;77.50
40816;DHT22;26535;48.788;9.214;2023-09-19T10:17:45;22.20;78.00
40816;DHT22;26535;48.788;9.214;2023-09-19T10:20:16;22.50;77.90
40816;DHT22;26535;48.788;9.214;2023-09-19T10:23:10;22.80;77.00
40816;DHT22;26535;48.788;9.214;2023-09-19T10:25:43;22.80;76.00
40816;DHT22;26535;48.788;9.214;2023-09-19T10:28:13;22.60;74.70
40816;DHT22;26535;48.788;9.214;2023-09-19T10:30:44;22.20;75.40
40816;DHT22;26535;48.788;9.214;2023-09-19T10:33:15;21.90;75.90
40816;DHT22;26535;48.788;9.214;2023-09-19T10:35:45;21.70;77.30
40816;DHT22;26535;48.788;9.214;2023-09-19T10:38:13;21.60;78.00
40816;DHT22;26535;48.788;9.214;2023-09-19T10:40:40;21.60;78.20
40816;DHT22;26535;48.788;9.214;2023-09-19T10:43:12;21.90;78.20
40816;DHT22;26535;48.788;9.214;2023-09-19T10:45:39;22.00;77.40
40816;DHT22;26535;48.788;9.214;2023-09-19T10:48:06;22.10;76.80
40816;DHT22;26535;48.788;9.214;2023-09-19T10:50:57;22.30;76.00
40816;DHT22;26535;48.788;9.214;2023-09-19T10:53:27;22.40;76.40
40816;DHT22;26535;48.788;9.214;2023-09-19T10:55:58;22.40;75.40
40816;DHT22;26535;48.788;9.214;2023-09-19T10:58:35;22.60;75.10
40816;DHT22;26535;48.788;9.214;2023-09-19T11:04:35;23.30;74.20
40816;DHT22;26535;48.788;9.214;2023-09-19T11:07:06;23.90;71.90
40816;DHT22;26535;48.788;9.214;2023-09-19T11:10:05;24.90;69.00
40816;DHT22;26535;48.788;9.214;2023-09-19T11:26:48;24.90;68.80
40816;DHT22;26535;48.788;9.214;2023-09-19T11:29:27;25.50;67.80
40816;DHT22;26535;48.788;9.214;2023-09-19T11:32:03;26.30;65.20
40816;DHT22;26535;48.788;9.214;2023-09-19T11:34:38;26.90;63.20
40816;DHT22;26535;48.788;9.214;2023-09-19T11:42:44;27.10;61.30
40816;DHT22;26535;48.788;9.214;2023-09-19T11:48:13;27.90;59.20
40816;DHT22;26535;48.788;9.214;2023-09-19T11:50:44;27.50;58.90
40816;DHT22;26535;48.788;9.214;2023-09-19T11:53:14;27.40;58.70
40816;DHT22;26535;48.788;9.214;2023-09-19T11:55:45;27.30;59.00
40816;DHT22;26535;48.788;9.214;2023-09-19T11:58:21;28.00;58.40
40816;DHT22;26535;48.788;9.214;2023-09-19T12:00:54;28.50;57.70
40816;DHT22;26535;48.788;9.214;2023-09-19T12:03:29;28.70;57.60
40816;DHT22;26535;48.788;9.214;2023-09-19T12:05:56;29.00;57.50
40816;DHT22;26535;48.788;9.214;2023-09-19T12:08:23;28.60;57.80
40816;DHT22;26535;48.788;9.214;2023-09-19T12:10:49;28.80;56.60
40816;DHT22;26535;48.788;9.214;2023-09-19T12:13:19;28.80;56.30
40816;DHT22;26535;48.788;9.214;2023-09-19T12:15:46;28.40;56.80
40816;DHT22;26535;48.788;9.214;2023-09-19T12:18:36;28.40;57.20
40816;DHT22;26535;48.788;9.214;2023-09-19T12:21:02;29.00;57.20
40816;DHT22;26535;48.788;9.214;2023-09-19T12:23:30;30.10;56.80
40816;DHT22;26535;48.788;9.214;2023-09-19T12:25:56;31.00;56.00
40816;DHT22;26535;48.788;9.214;2023-09-19T12:28:26;31.70;55.20
40816;DHT22;26535;48.788;9.214;2023-09-19T12:30:52;32.00;53.80
40816;DHT22;26535;48.788;9.214;2023-09-19T12:33:21;30.60;54.90
40816;DHT22;26535;48.788;9.214;2023-09-19T12:35:47;31.20;55.00
40816;DHT22;26535;48.788;9.214;2023-09-19T12:38:25;31.40;54.30
40816;DHT22;26535;48.788;9.214;2023-09-19T12:40:57;31.60;54.60
40816;DHT22;26535;48.788;9.214;2023-09-19T12:43:29;31.80;54.40
40816;DHT22;26535;48.788;9.214;2023-09-19T12:45:58;31.80;52.80
40816;DHT22;26535;48.788;9.214;2023-09-19T12:48:26;30.80;54.10
40816;DHT22;26535;48.788;9.214;2023-09-19T12:51:11;30.90;55.10
40816;DHT22;26535;48.788;9.214;2023-09-19T12:53:43;31.40;54.70
40816;DHT22;26535;48.788;9.214;2023-09-19T12:56:09;30.70;54.60
40816;DHT22;26535;48.788;9.214;2023-09-19T12:59:08;29.80;55.70
40816;DHT22;26535;48.788;9.214;2023-09-19T13:01:37;29.20;57.30
40816;DHT22;26535;48.788;9.214;2023-09-19T13:04:21;28.70;58.10
40816;DHT22;26535;48.788;9.214;2023-09-19T13:06:58;29.80;56.40
40816;DHT22;26535;48.788;9.214;2023-09-19T13:09:27;29.50;55.70
40816;DHT22;26535;48.788;9.214;2023-09-19T13:12:04;28.60;56.20
40816;DHT22;26535;48.788;9.214;2023-09-19T13:14:32;27.80;58.60
40816;DHT22;26535;48.788;9.214;2023-09-19T13:17:09;28.00;57.70
40816;DHT22;26535;48.788;9.214;2023-09-19T13:19:49;27.30;58.80
40816;DHT22;26535;48.788;9.214;2023-09-19T13:22:43;26.80;59.90
40816;DHT22;26535;48.788;9.214;2023-09-19T13:25:21;26.80;60.50
40816;DHT22;26535;48.788;9.214;2023-09-19T13:27:52;28.40;60.10
40816;DHT22;26535;48.788;9.214;2023-09-19T13:30:20;30.90;56.60
40816;DHT22;26535;48.788;9.214;2023-09-19T13:32:47;33.10;53.30
40816;DHT22;26535;48.788;9.214;2023-09-19T13:35:13;31.60;53.30
40816;DHT22;26535;48.788;9.214;2023-09-19T13:37:41;30.20;54.10
40816;DHT22;26535;48.788;9.214;2023-09-19T13:40:12;30.30;54.50
40816;DHT22;26535;48.788;9.214;2023-09-19T13:42:38;30.60;53.50
40816;DHT22;26535;48.788;9.214;2023-09-19T13:45:08;30.10;54.40
40816;DHT22;26535;48.788;9.214;2023-09-19T13:47:38;30.10;55.80
40816;DHT22;26535;48.788;9.214;2023-09-19T13:50:05;30.70;55.80
40816;DHT22;26535;48.788;9.214;2023-09-19T13:52:32;30.90;54.00
40816;DHT22;26535;48.788;9.214;2023-09-19T13:54:58;32.50;53.70
40816;DHT22;26535;48.788;9.214;2023-09-19T13:57:25;33.70;51.40
40816;DHT22;26535;48.788;9.214;2023-09-19T13:59:52;36.00;48.20
40816;DHT22;26535;48.788;9.214;2023-09-19T14:02:23;35.90;48.60
40816;DHT22;26535;48.788;9.214;2023-09-19T14:04:52;35.70;48.50
40816;DHT22;26535;48.788;9.214;2023-09-19T14:07:18;35.60;47.80
40816;DHT22;26535;48.788;9.214;2023-09-19T14:09:45;35.40;48.30
40816;DHT22;26535;48.788;9.214;2023-09-19T14:12:11;34.50;49.30
40816;DHT22;26535;48.788;9.214;2023-09-19T14:14:40;34.50;49.20
40816;DHT22;26535;48.788;9.214;2023-09-19T14:17:07;34.50;49.80
40816;DHT22;26535;48.788;9.214;2023-09-19T14:19:34;34.50;49.20
40816;DHT22;26535;48.788;9.214;2023-09-19T14:22:02;32.80;49.70
40816;DHT22;26535;48.788;9.214;2023-09-19T14:24:33;31.30;51.80
40816;DHT22;26535;48.788;9.214;2023-09-19T14:27:00;30.20;54.00
40816;DHT22;26535;48.788;9.214;2023-09-19T14:29:25;29.50;54.70
40816;DHT22;26535;48.788;9.214;2023-09-19T14:31:51;29.00;56.10
40816;DHT22;26535;48.788;9.214;2023-09-19T14:34:17;29.60;54.70
40816;DHT22;26535;48.788;9.214;2023-09-19T14:36:43;29.50;53.60
40816;DHT22;26535;48.788;9.214;2023-09-19T14:39:08;28.70;53.30
40816;DHT22;26535;48.788;9.214;2023-09-19T14:41:34;28.50;54.20
40816;DHT22;26535;48.788;9.214;2023-09-19T14:44:02;29.10;54.10
40816;DHT22;26535;48.788;9.214;2023-09-19T14:46:28;30.00;53.20
40816;DHT22;26535;48.788;9.214;2023-09-19T14:48:54;30.30;52.60
40816;DHT22;26535;48.788;9.214;2023-09-19T14:51:22;31.40;52.00
40816;DHT22;26535;48.788;9.214;2023-09-19T14:53:48;32.40;50.90
40816;DHT22;26535;48.788;9.214;2023-09-19T14:56:14;32.40;49.70
40816;DHT22;26535;48.788;9.214;2023-09-19T14:58:44;32.40;50.00
40816;DHT22;26535;48.788;9.214;2023-09-19T15:01:12;32.60;49.60
40816;DHT22;26535;48.788;9.214;2023-09-19T15:03:39;32.60;50.30
40816;DHT22;26535;48.788;9.214;2023-09-19T15:06:10;32.20;49.80
40816;DHT22;26535;48.788;9.214;2023-09-19T15:08:46;31.80;50.10
40816;DHT22;26535;48.788;9.214;2023-09-19T15:11:19;30.90;50.90
40816;DHT22;26535;48.788;9.214;2023-09-19T15:13:46;31.50;51.10
40816;DHT22;26535;48.788;9.214;2023-09-19T15:16:12;31.90;50.50
40816;DHT22;26535;48.788;9.214;2023-09-19T15:18:43;31.30;51.30
40816;DHT22;26535;48.788;9.214;2023-09-19T15:21:11;30.80;52.30
40816;DHT22;26535;48.788;9.214;2023-09-19T15:23:38;30.30;52.00
40816;DHT22;26535;48.788;9.214;2023-09-19T15:26:09;29.90;52.60
40816;DHT22;26535;48.788;9.214;2023-09-19T15:28:37;29.60;53.40
40816;DHT22;26535;48.788;9.214;2023-09-19T15:31:10;29.50;53.30
40816;DHT22;26535;48.788;9.214;2023-09-19T15:33:39;29.30;54.80
40816;DHT22;26535;48.788;9.214;2023-09-19T15:36:12;29.20;53.30
40816;DHT22;26535;48.788;9.214;2023-09-19T15:39:01;30.20;52.90
40816;DHT22;26535;48.788;9.214;2023-09-19T15:41:38;30.90;51.40
40816;DHT22;26535;48.788;9.214;2023-09-19T15:44:10;31.50;51.00
40816;DHT22;26535;48.788;9.214;2023-09-19T15:46:39;32.10;50.30
40816;DHT22;26535;48.788;9.214;2023-09-19T15:49:04;32.10;50.20
40816;DHT22;26535;48.788;9.214;2023-09-19T15:51:30;30.00;51.80
40816;DHT22;26535;48.788;9.214;2023-09-19T15:53:56;29.10;53.70
40816;DHT22;26535;48.788;9.214;2023-09-19T15:56:23;28.40;54.20
40816;DHT22;26535;48.788;9.214;2023-09-19T15:58:54;28.30;54.80
40816;DHT22;26535;48.788;9.214;2023-09-19T16:01:20;28.50;54.70
40816;DHT22;26535;48.788;9.214;2023-09-19T16:03:50;29.40;54.30
40816;DHT22;26535;48.788;9.214;2023-09-19T16:06:27;30.00;53.50
40816;DHT22;26535;48.788;9.214;2023-09-19T16:08:55;30.80;52.70
40816;DHT22;26535;48.788;9.214;2023-09-19T16:11:22;30.60;52.80
40816;DHT22;26535;48.788;9.214;2023-09-19T16:13:49;31.10;51.70
40816;DHT22;26535;48.788;9.214;2023-09-19T16:16:16;31.00;51.40
40816;DHT22;26535;48.788;9.214;2023-09-19T16:18:46;31.00;52.20
40816;DHT22;26535;48.788;9.214;2023-09-19T16:21:13;30.70;51.90
40816;DHT22;26535;48.788;9.214;2023-09-19T16:23:39;29.90;53.60
40816;DHT22;26535;48.788;9.214;2023-09-19T16:26:09;28.90;53.50
40816;DHT22;26535;48.788;9.214;2023-09-19T16:28:38;28.50;55.50
40816;DHT22;26535;48.788;9.214;2023-09-19T16:31:05;28.20;55.10
40816;DHT22;26535;48.788;9.214;2023-09-19T16:33:32;27.70;56.30
40816;DHT22;26535;48.788;9.214;2023-09-19T16:35:59;27.30;56.80
40816;DHT22;26535;48.788;9.214;2023-09-19T16:38:27;27.10;57.70
40816;DHT22;26535;48.788;9.214;2023-09-19T16:40:54;26.30;58.50
40816;DHT22;26535;48.788;9.214;2023-09-19T16:43:22;25.60;59.60
40816;DHT22;26535;48.788;9.214;2023-09-19T16:46:14;25.30;60.90
40816;DHT22;26535;48.788;9.214;2023-09-19T16:48:45;25.00;61.90
40816;DHT22;26535;48.788;9.214;2023-09-19T16:51:13;24.80;61.90
40816;DHT22;26535;48.788;9.214;2023-09-19T16:53:40;24.60;62.50
40816;DHT22;26535;48.788;9.214;2023-09-19T16:56:13;24.40;63.00
40816;DHT22;26535;48.788;9.214;2023-09-19T16:58:43;24.20;63.60
40816;DHT22;26535;48.788;9.214;2023-09-19T17:01:12;24.10;64.20
40816;DHT22;26535;48.788;9.214;2023-09-19T17:03:40;24.00;64.30
40816;DHT22;26535;48.788;9.214;2023-09-19T17:06:09;23.80;65.50
40816;DHT22;26535;48.788;9.214;2023-09-19T17:08:37;23.80;64.90
40816;DHT22;26535;48.788;9.214;2023-09-19T17:13:32;23.50;65.80
40816;DHT22;26535;48.788;9.214;2023-09-19T17:16:12;23.30;66.30
40816;DHT22;26535;48.788;9.214;2023-09-19T17:18:38;23.30;66.50
40816;DHT22;26535;48.788;9.214;2023-09-19T17:21:35;23.20;67.00
40816;DHT22;26535;48.788;9.214;2023-09-19T17:24:18;23.10;67.90
40816;DHT22;26535;48.788;9.214;2023-09-19T17:26:46;22.90;67.90
40816;DHT22;26535;48.788;9.214;2023-09-19T17:30:03;22.80;68.60
40816;DHT22;26535;48.788;9.214;2023-09-19T17:33:08;22.80;69.20
40816;DHT22;26535;48.788;9.214;2023-09-19T17:35:34;22.60;69.50
40816;DHT22;26535;48.788;9.214;2023-09-19T17:37:59;22.40;70.40
40816;DHT22;26535;48.788;9.214;2023-09-19T17:40:25;22.30;71.20
40816;DHT22;26535;48.788;9.214;2023-09-19T17:42:51;22.10;72.20
40816;DHT22;26535;48.788;9.214;2023-09-19T17:45:23;21.90;72.70
40816;DHT22;26535;48.788;9.214;2023-09-19T17:47:55;21.80;73.50
40816;DHT22;26535;48.788;9.214;2023-09-19T17:50:24;21.70;73.90
40816;DHT22;26535;48.788;9.214;2023-09-19T17:53:12;21.50;74.40
40816;DHT22;26535;48.788;9.214;2023-09-19T17:55:41;21.40;74.60
40816;DHT22;26535;48.788;9.214;2023-09-19T17:58:46;21.30;75.30
40816;DHT22;26535;48.788;9.214;2023-09-19T18:01:19;21.20;76.00
40816;DHT22;26535;48.788;9.214;2023-09-19T18:03:50;21.00;76.60
40816;DHT22;26535;48.788;9.214;2023-09-19T18:06:35;20.90;77.70
40816;DHT22;26535;48.788;9.214;2023-09-19T18:09:47;20.80;78.30
40816;DHT22;26535;48.788;9.214;2023-09-19T18:12:12;20.60;78.70
40816;DHT22;26535;48.788;9.214;2023-09-19T18:14:41;20.60;79.10
40816;DHT22;26535;48.788;9.214;2023-09-19T18:17:12;20.60;79.30
40816;DHT22;26535;48.788;9.214;2023-09-19T18:19:57;20.60;79.40
40816;DHT22;26535;48.788;9.214;2023-09-19T18:22:26;20.60;79.50
40816;DHT22;26535;48.788;9.214;2023-09-19T18:24:56;20.50;79.40
40816;DHT22;26535;48.788;9.214;2023-09-19T18:27:59;20.40;80.30
40816;DHT22;26535;48.788;9.214;2023-09-19T18:30:33;20.30;80.30
40816;DHT22;26535;48.788;9.214;2023-09-19T18:33:08;20.20;80.40
40816;DHT22;26535;48.788;9.214;2023-09-19T18:35:43;20.20;80.50
40816;DHT22;26535;48.788;9.214;2023-09-19T18:38:13;20.20;81.20
40816;DHT22;26535;48.788;9.214;2023-09-19T18:40:48;20.10;81.20
40816;DHT22;26535;48.788;9.214;2023-09-19T18:43:18;20.10;81.20
40816;DHT22;26535;48.788;9.214;2023-09-19T18:46:10;20.00;81.40
40816;DHT22;26535;48.788;9.214;2023-09-19T18:48:58;20.00;81.50
40816;DHT22;26535;48.788;9.214;2023-09-19T18:51:44;19.90;82.00
40816;DHT22;26535;48.788;9.214;2023-09-19T18:54:23;19.80;82.10
40816;DHT22;26535;48.788;9.214;2023-09-19T18:56:55;19.80;82.30
40816;DHT22;26535;48.788;9.214;2023-09-19T18:59:28;19.70;82.40
40816;DHT22;26535;48.788;9.214;2023-09-19T19:02:01;19.70;82.20
40816;DHT22;26535;48.788;9.214;2023-09-19T19:04:42;19.60;82.40
40816;DHT22;26535;48.788;9.214;2023-09-19T19:07:29;19.60;82.60
40816;DHT22;26535;48.788;9.214;2023-09-19T19:09:55;19.50;83.00
40816;DHT22;26535;48.788;9.214;2023-09-19T19:12:21;19.40;83.60
40816;DHT22;26535;48.788;9.214;2023-09-19T19:14:54;19.30;83.90
40816;DHT22;26535;48.788;9.214;2023-09-19T19:17:20;19.20;84.10
40816;DHT22;26535;48.788;9.214;2023-09-19T19:19:49;19.10;84.60
40816;DHT22;26535;48.788;9.214;2023-09-19T19:22:23;19.10;84.80
40816;DHT22;26535;48.788;9.214;2023-09-19T19:24:52;19.00;85.30
40816;DHT22;26535;48.788;9.214;2023-09-19T19:27:18;19.00;85.20
40816;DHT22;26535;48.788;9.214;2023-09-19T19:29:46;18.90;85.50
40816;DHT22;26535;48.788;9.214;2023-09-19T19:32:15;18.90;85.80
40816;DHT22;26535;48.788;9.214;2023-09-19T19:34:44;18.80;86.00
40816;DHT22;26535;48.788;9.214;2023-09-19T19:37:11;18.80;86.40
40816;DHT22;26535;48.788;9.214;2023-09-19T19:39:49;18.70;86.30
40816;DHT22;26535;48.788;9.214;2023-09-19T19:42:15;18.70;86.70
40816;DHT22;26535;48.788;9.214;2023-09-19T19:44:40;18.60;86.80
40816;DHT22;26535;48.788;9.214;2023-09-19T19:47:06;18.50;86.90
40816;DHT22;26535;48.788;9.214;2023-09-19T19:49:33;18.50;87.30
40816;DHT22;26535;48.788;9.214;2023-09-19T19:52:00;18.40;87.50
40816;DHT22;26535;48.788;9.214;2023-09-19T19:54:26;18.30;87.90
40816;DHT22;26535;48.788;9.214;2023-09-19T19:56:52;18.20;88.70
40816;DHT22;26535;48.788;9.214;2023-09-19T19:59:18;18.20;88.20
40816;DHT22;26535;48.788;9.214;2023-09-19T20:01:45;18.10;89.50
40816;DHT22;26535;48.788;9.214;2023-09-19T20:04:11;18.10;88.90
40816;DHT22;26535;48.788;9.214;2023-09-19T20:06:38;18.00;89.80
40816;DHT22;26535;48.788;9.214;2023-09-19T20:09:06;17.90;90.10
40816;DHT22;26535;48.788;9.214;2023-09-19T20:11:37;17.80;90.00
40816;DHT22;26535;48.788;9.214;2023-09-19T20:14:03;17.70;90.20
40816;DHT22;26535;48.788;9.214;2023-09-19T20:16:30;17.70;90.50
40816;DHT22;26535;48.788;9.214;2023-09-19T20:19:03;17.60;90.20
40816;DHT22;26535;48.788;9.214;2023-09-19T20:21:31;17.60;90.60
40816;DHT22;26535;48.788;9.214;2023-09-19T20:23:57;17.50;90.30
40816;DHT22;26535;48.788;9.214;2023-09-19T20:26:37;17.50;89.80
40816;DHT22;26535;48.788;9.214;2023-09-19T20:29:05;17.60;89.30
40816;DHT22;26535;48.788;9.214;2023-09-19T20:31:32;17.70;88.20
40816;DHT22;26535;48.788;9.214;2023-09-19T20:33:59;17.90;87.90
40816;DHT22;26535;48.788;9.214;2023-09-19T20:36:26;17.90;87.50
40816;DHT22;26535;48.788;9.214;2023-09-19T20:38:52;17.90;87.40
40816;DHT22;26535;48.788;9.214;2023-09-19T20:41:23;17.90;87.40
40816;DHT22;26535;48.788;9.214;2023-09-19T20:43:49;17.90;87.30
40816;DHT22;26535;48.788;9.214;2023-09-19T20:46:27;17.80;87.50
40816;DHT22;26535;48.788;9.214;2023-09-19T20:48:59;17.70;87.80
40816;DHT22;26535;48.788;9.214;2023-09-19T20:51:30;17.70;89.00
40816;DHT22;26535;48.788;9.214;2023-09-19T20:54:06;17.60;89.40
40816;DHT22;26535;48.788;9.214;2023-09-19T20:56:41;17.40;89.60
40816;DHT22;26535;48.788;9.214;2023-09-19T20:59:16;17.30;90.30
40816;DHT22;26535;48.788;9.214;2023-09-19T21:01:56;17.30;91.00
40816;DHT22;26535;48.788;9.214;2023-09-19T21:04:28;17.10;91.50
40816;DHT22;26535;48.788;9.214;2023-09-19T21:06:55;17.00;91.20
40816;DHT22;26535;48.788;9.214;2023-09-19T21:09:21;16.90;91.50
40816;DHT22;26535;48.788;9.214;2023-09-19T21:11:47;16.90;91.80
40816;DHT22;26535;48.788;9.214;2023-09-19T21:14:13;16.80;92.00
40816;DHT22;26535;48.788;9.214;2023-09-19T21:16:45;16.80;92.20
40816;DHT22;26535;48.788;9.214;2023-09-19T21:19:11;16.70;92.30
40816;DHT22;26535;48.788;9.214;2023-09-19T21:21:37;16.60;92.20
40816;DHT22;26535;48.788;9.214;2023-09-19T21:24:05;16.60;92.30
40816;DHT22;26535;48.788;9.214;2023-09-19T21:26:59;16.60;92.50
40816;DHT22;26535;48.788;9.214;2023-09-19T21:29:36;16.50;92.70
40816;DHT22;26535;48.788;9.214;2023-09-19T21:32:11;16.40;93.10
40816;DHT22;26535;48.788;9.214;2023-09-19T21:34:42;16.40;93.00
40816;DHT22;26535;48.788;9.214;2023-09-19T21:37:14;16.40;93.10
40816;DHT22;26535;48.788;9.214;2023-09-19T21:42:51;16.30;93.40
40816;DHT22;26535;48.788;9.214;2023-09-19T21:46:13;16.30;93.00
40816;DHT22;26535;48.788;9.214;2023-09-19T21:48:57;16.30;93.00
40816;DHT22;26535;48.788;9.214;2023-09-19T21:51:26;16.30;93.20
40816;DHT22;26535;48.788;9.214;2023-09-19T21:54:04;16.20;93.00
40816;DHT22;26535;48.788;9.214;2023-09-19T21:56:42;16.20;92.80
40816;DHT22;26535;48.788;9.214;2023-09-19T21:59:11;16.30;92.70
40816;DHT22;26535;48.788;9.214;2023-09-19T22:01:39;16.30;92.50
40816;DHT22;26535;48.788;9.214;2023-09-19T22:04:05;16.30;92.60
40816;DHT22;26535;48.788;9.214;2023-09-19T22:06:35;16.30;92.60
40816;DHT22;26535;48.788;9.214;2023-09-19T22:09:08;16.20;92.90
40816;DHT22;26535;48.788;9.214;2023-09-19T22:11:34;16.20;93.30
40816;DHT22;26535;48.788;9.214;2023-09-19T22:14:09;16.10;93.40